sensor_id;sensor_type;location;lat;lon;timestamp;P1;durP1;ratioP1;P2;durP2;ratioP2
22298;SDS011;11317;51.072;17.036;2024-02-21T00:02:24;11.32;;;2.72;;
22298;SDS011;11317;51.072;17.036;2024-02-21T00:04:50;6.55;;;2.38;;
22298;SDS011;11317;51.072;17.036;2024-02-21T00:07:16;6.75;;;2.58;;
22298;SDS011;11317;51.072;17.036;2024-02-21T00:09:42;8.57;;;2.47;;
22298;SDS011;11317;51.072;17.036;2024-02-21T00:12:08;5.60;;;2.20;;
22298;SDS011;11317;51.072;17.036;2024-02-21T00:14:35;10.27;;;2.35;;
22298;SDS011;11317;51.072;17.036;2024-02-21T00:17:01;8.93;;;2.30;;
22298;SDS011;11317;51.072;17.036;2024-02-21T00:19:27;9.05;;;2.42;;
22298;SDS011;11317;51.072;17.036;2024-02-21T00:21:53;8.25;;;2.03;;
22298;SDS011;11317;51.072;17.036;2024-02-21T00:24:19;4.18;;;2.40;;
22298;SDS011;11317;51.072;17.036;2024-02-21T00:26:45;5.80;;;2.35;;
22298;SDS011;11317;51.072;17.036;2024-02-21T00:29:11;11.32;;;2.95;;
22298;SDS011;11317;51.072;17.036;2024-02-21T00:31:37;7.40;;;2.28;;
22298;SDS011;11317;51.072;17.036;2024-02-21T00:34:03;9.02;;;2.22;;
22298;SDS011;11317;51.072;17.036;2024-02-21T00:36:29;9.88;;;1.90;;
22298;SDS011;11317;51.072;17.036;2024-02-21T00:38:56;7.32;;;2.30;;
22298;SDS011;11317;51.072;17.036;2024-02-21T00:41:22;11.48;;;2.50;;
22298;SDS011;11317;51.072;17.036;2024-02-21T00:43:48;8.82;;;1.60;;
22298;SDS011;11317;51.072;17.036;2024-02-21T00:46:15;8.93;;;2.20;;
22298;SDS011;11317;51.072;17.036;2024-02-21T00:48:41;8.55;;;1.95;;
22298;SDS011;11317;51.072;17.036;2024-02-21T00:51:07;7.90;;;2.30;;
22298;SDS011;11317;51.072;17.036;2024-02-21T00:53:33;8.60;;;2.08;;
22298;SDS011;11317;51.072;17.036;2024-02-21T00:56:03;9.85;;;2.42;;
22298;SDS011;11317;51.072;17.036;2024-02-21T00:58:30;5.68;;;2.45;;
22298;SDS011;11317;51.072;17.036;2024-02-21T01:00:56;16.42;;;3.15;;
22298;SDS011;11317;51.072;17.036;2024-02-21T01:03:22;5.38;;;2.13;;
22298;SDS011;11317;51.072;17.036;2024-02-21T01:05:48;4.93;;;1.85;;
22298;SDS011;11317;51.072;17.036;2024-02-21T01:08:14;8.77;;;2.40;;
22298;SDS011;11317;51.072;17.036;2024-02-21T01:10:40;4.55;;;2.03;;
22298;SDS011;11317;51.072;17.036;2024-02-21T01:13:06;7.30;;;2.08;;
22298;SDS011;11317;51.072;17.036;2024-02-21T01:15:32;6.53;;;2.35;;
22298;SDS011;11317;51.072;17.036;2024-02-21T01:17:59;5.53;;;2.15;;
22298;SDS011;11317;51.072;17.036;2024-02-21T01:20:25;5.90;;;2.30;;
22298;SDS011;11317;51.072;17.036;2024-02-21T01:22:51;11.73;;;2.53;;
22298;SDS011;11317;51.072;17.036;2024-02-21T01:25:17;5.57;;;2.03;;
22298;SDS011;11317;51.072;17.036;2024-02-21T01:27:43;10.48;;;2.78;;
22298;SDS011;11317;51.072;17.036;2024-02-21T01:30:09;11.60;;;3.05;;
22298;SDS011;11317;51.072;17.036;2024-02-21T01:32:36;10.52;;;2.17;;
22298;SDS011;11317;51.072;17.036;2024-02-21T01:35:01;12.18;;;2.50;;
22298;SDS011;11317;51.072;17.036;2024-02-21T01:37:27;6.30;;;2.13;;
22298;SDS011;11317;51.072;17.036;2024-02-21T01:39:54;15.05;;;2.50;;
22298;SDS011;11317;51.072;17.036;2024-02-21T01:42:20;7.45;;;1.80;;
22298;SDS011;11317;51.072;17.036;2024-02-21T01:44:45;8.23;;;2.10;;
22298;SDS011;11317;51.072;17.036;2024-02-21T01:47:11;1.77;;;1.65;;
22298;SDS011;11317;51.072;17.036;2024-02-21T01:49:40;4.30;;;2.45;;
22298;SDS011;11317;51.072;17.036;2024-02-21T01:52:06;8.43;;;2.50;;
22298;SDS011;11317;51.072;17.036;2024-02-21T01:54:33;5.05;;;1.92;;
22298;SDS011;11317;51.072;17.036;2024-02-21T01:57:00;8.00;;;2.47;;
22298;SDS011;11317;51.072;17.036;2024-02-21T01:59:26;8.43;;;2.60;;
22298;SDS011;11317;51.072;17.036;2024-02-21T02:01:53;7.38;;;2.70;;
22298;SDS011;11317;51.072;17.036;2024-02-21T02:04:21;13.07;;;3.10;;
22298;SDS011;11317;51.072;17.036;2024-02-21T02:06:47;12.02;;;2.60;;
22298;SDS011;11317;51.072;17.036;2024-02-21T02:09:15;4.90;;;2.85;;
22298;SDS011;11317;51.072;17.036;2024-02-21T02:11:42;11.73;;;3.10;;
22298;SDS011;11317;51.072;17.036;2024-02-21T02:14:08;6.55;;;2.83;;
22298;SDS011;11317;51.072;17.036;2024-02-21T02:16:34;4.45;;;3.35;;
22298;SDS011;11317;51.072;17.036;2024-02-21T02:19:00;8.70;;;3.70;;
22298;SDS011;11317;51.072;17.036;2024-02-21T02:21:29;8.55;;;3.40;;
22298;SDS011;11317;51.072;17.036;2024-02-21T02:23:57;8.52;;;3.20;;
22298;SDS011;11317;51.072;17.036;2024-02-21T02:26:24;8.75;;;3.30;;
22298;SDS011;11317;51.072;17.036;2024-02-21T02:28:50;8.73;;;3.88;;
22298;SDS011;11317;51.072;17.036;2024-02-21T02:31:16;13.38;;;4.07;;
22298;SDS011;11317;51.072;17.036;2024-02-21T02:33:42;10.55;;;4.65;;
22298;SDS011;11317;51.072;17.036;2024-02-21T02:36:09;13.48;;;3.55;;
22298;SDS011;11317;51.072;17.036;2024-02-21T02:38:35;8.10;;;3.20;;
22298;SDS011;11317;51.072;17.036;2024-02-21T02:41:01;4.28;;;3.40;;
22298;SDS011;11317;51.072;17.036;2024-02-21T02:43:27;11.70;;;4.25;;
22298;SDS011;11317;51.072;17.036;2024-02-21T02:45:53;10.55;;;4.88;;
22298;SDS011;11317;51.072;17.036;2024-02-21T02:48:20;8.27;;;4.72;;
22298;SDS011;11317;51.072;17.036;2024-02-21T02:50:46;9.60;;;3.60;;
22298;SDS011;11317;51.072;17.036;2024-02-21T02:53:12;21.35;;;5.97;;
22298;SDS011;11317;51.072;17.036;2024-02-21T02:55:38;9.85;;;4.57;;
22298;SDS011;11317;51.072;17.036;2024-02-21T02:58:05;7.75;;;4.93;;
22298;SDS011;11317;51.072;17.036;2024-02-21T03:00:30;12.23;;;5.22;;
22298;SDS011;11317;51.072;17.036;2024-02-21T03:03:01;11.18;;;4.47;;
22298;SDS011;11317;51.072;17.036;2024-02-21T03:05:30;11.20;;;4.40;;
22298;SDS011;11317;51.072;17.036;2024-02-21T03:07:56;11.50;;;4.18;;
22298;SDS011;11317;51.072;17.036;2024-02-21T03:10:22;12.20;;;4.20;;
22298;SDS011;11317;51.072;17.036;2024-02-21T03:12:49;9.68;;;4.20;;
22298;SDS011;11317;51.072;17.036;2024-02-21T03:15:15;10.40;;;4.45;;
22298;SDS011;11317;51.072;17.036;2024-02-21T03:17:41;6.60;;;4.15;;
22298;SDS011;11317;51.072;17.036;2024-02-21T03:20:07;8.23;;;3.85;;
22298;SDS011;11317;51.072;17.036;2024-02-21T03:22:34;7.68;;;4.10;;
22298;SDS011;11317;51.072;17.036;2024-02-21T03:25:01;6.80;;;3.80;;
22298;SDS011;11317;51.072;17.036;2024-02-21T03:27:26;10.07;;;4.35;;
22298;SDS011;11317;51.072;17.036;2024-02-21T03:29:53;7.20;;;3.65;;
22298;SDS011;11317;51.072;17.036;2024-02-21T03:32:19;10.35;;;4.47;;
22298;SDS011;11317;51.072;17.036;2024-02-21T03:34:45;7.05;;;3.80;;
22298;SDS011;11317;51.072;17.036;2024-02-21T03:37:11;6.50;;;4.30;;
22298;SDS011;11317;51.072;17.036;2024-02-21T03:39:38;11.23;;;5.18;;
22298;SDS011;11317;51.072;17.036;2024-02-21T03:42:05;10.73;;;5.28;;
22298;SDS011;11317;51.072;17.036;2024-02-21T03:44:31;8.23;;;5.55;;
22298;SDS011;11317;51.072;17.036;2024-02-21T03:46:58;13.77;;;6.25;;
22298;SDS011;11317;51.072;17.036;2024-02-21T03:49:25;11.77;;;5.35;;
22298;SDS011;11317;51.072;17.036;2024-02-21T03:51:51;9.25;;;4.78;;
22298;SDS011;11317;51.072;17.036;2024-02-21T03:54:18;12.35;;;4.68;;
22298;SDS011;11317;51.072;17.036;2024-02-21T03:56:44;8.25;;;4.47;;
22298;SDS011;11317;51.072;17.036;2024-02-21T03:59:10;12.63;;;4.25;;
22298;SDS011;11317;51.072;17.036;2024-02-21T04:01:36;9.15;;;4.35;;
22298;SDS011;11317;51.072;17.036;2024-02-21T04:04:02;10.07;;;3.67;;
22298;SDS011;11317;51.072;17.036;2024-02-21T04:06:28;10.13;;;4.13;;
22298;SDS011;11317;51.072;17.036;2024-02-21T04:08:54;6.95;;;3.58;;
22298;SDS011;11317;51.072;17.036;2024-02-21T04:11:20;7.75;;;3.97;;
22298;SDS011;11317;51.072;17.036;2024-02-21T04:13:46;9.13;;;4.45;;
22298;SDS011;11317;51.072;17.036;2024-02-21T04:16:15;6.85;;;3.53;;
22298;SDS011;11317;51.072;17.036;2024-02-21T04:18:41;11.35;;;3.60;;
22298;SDS011;11317;51.072;17.036;2024-02-21T04:21:08;6.53;;;3.45;;
22298;SDS011;11317;51.072;17.036;2024-02-21T04:23:34;11.93;;;3.72;;
22298;SDS011;11317;51.072;17.036;2024-02-21T04:26:01;7.55;;;3.65;;
22298;SDS011;11317;51.072;17.036;2024-02-21T04:28:27;8.88;;;3.63;;
22298;SDS011;11317;51.072;17.036;2024-02-21T04:30:53;7.75;;;2.90;;
22298;SDS011;11317;51.072;17.036;2024-02-21T04:33:19;7.60;;;3.55;;
22298;SDS011;11317;51.072;17.036;2024-02-21T04:35:45;6.05;;;3.50;;
22298;SDS011;11317;51.072;17.036;2024-02-21T04:38:11;9.00;;;3.55;;
22298;SDS011;11317;51.072;17.036;2024-02-21T04:40:37;5.30;;;3.63;;
22298;SDS011;11317;51.072;17.036;2024-02-21T04:43:03;7.65;;;3.25;;
22298;SDS011;11317;51.072;17.036;2024-02-21T04:45:29;6.80;;;3.13;;
22298;SDS011;11317;51.072;17.036;2024-02-21T04:47:55;5.85;;;3.22;;
22298;SDS011;11317;51.072;17.036;2024-02-21T04:50:21;4.15;;;2.72;;
22298;SDS011;11317;51.072;17.036;2024-02-21T04:52:48;6.55;;;3.22;;
22298;SDS011;11317;51.072;17.036;2024-02-21T04:55:14;7.22;;;2.78;;
22298;SDS011;11317;51.072;17.036;2024-02-21T04:57:40;7.72;;;2.80;;
22298;SDS011;11317;51.072;17.036;2024-02-21T05:00:06;4.75;;;3.03;;
22298;SDS011;11317;51.072;17.036;2024-02-21T05:02:33;8.38;;;3.95;;
22298;SDS011;11317;51.072;17.036;2024-02-21T05:04:58;5.45;;;3.53;;
22298;SDS011;11317;51.072;17.036;2024-02-21T05:07:25;5.22;;;3.13;;
22298;SDS011;11317;51.072;17.036;2024-02-21T05:09:50;8.75;;;3.30;;
22298;SDS011;11317;51.072;17.036;2024-02-21T05:12:17;8.63;;;3.08;;
22298;SDS011;11317;51.072;17.036;2024-02-21T05:14:42;6.50;;;2.95;;
22298;SDS011;11317;51.072;17.036;2024-02-21T05:17:09;5.07;;;2.97;;
22298;SDS011;11317;51.072;17.036;2024-02-21T05:19:35;7.38;;;3.70;;
22298;SDS011;11317;51.072;17.036;2024-02-21T05:22:01;7.97;;;2.78;;
22298;SDS011;11317;51.072;17.036;2024-02-21T05:24:27;6.28;;;3.15;;
22298;SDS011;11317;51.072;17.036;2024-02-21T05:26:54;8.02;;;4.05;;
22298;SDS011;11317;51.072;17.036;2024-02-21T05:29:20;7.68;;;3.67;;
22298;SDS011;11317;51.072;17.036;2024-02-21T05:34:18;6.40;;;3.30;;
22298;SDS011;11317;51.072;17.036;2024-02-21T05:36:45;9.68;;;3.80;;
22298;SDS011;11317;51.072;17.036;2024-02-21T05:39:11;7.45;;;2.92;;
22298;SDS011;11317;51.072;17.036;2024-02-21T05:41:37;7.50;;;3.30;;
22298;SDS011;11317;51.072;17.036;2024-02-21T05:44:03;6.15;;;3.38;;
22298;SDS011;11317;51.072;17.036;2024-02-21T05:46:29;5.13;;;3.03;;
22298;SDS011;11317;51.072;17.036;2024-02-21T05:48:55;7.57;;;3.00;;
22298;SDS011;11317;51.072;17.036;2024-02-21T05:51:21;10.30;;;3.10;;
22298;SDS011;11317;51.072;17.036;2024-02-21T05:53:47;8.77;;;3.95;;
22298;SDS011;11317;51.072;17.036;2024-02-21T05:56:13;8.10;;;3.40;;
22298;SDS011;11317;51.072;17.036;2024-02-21T05:58:39;8.57;;;3.50;;
22298;SDS011;11317;51.072;17.036;2024-02-21T06:01:05;6.50;;;3.15;;
22298;SDS011;11317;51.072;17.036;2024-02-21T06:03:32;5.07;;;2.63;;
22298;SDS011;11317;51.072;17.036;2024-02-21T06:05:59;11.57;;;2.88;;
22298;SDS011;11317;51.072;17.036;2024-02-21T06:08:25;7.93;;;3.33;;
22298;SDS011;11317;51.072;17.036;2024-02-21T06:10:51;5.75;;;3.17;;
22298;SDS011;11317;51.072;17.036;2024-02-21T06:13:25;4.78;;;2.83;;
22298;SDS011;11317;51.072;17.036;2024-02-21T06:15:52;5.93;;;3.58;;
22298;SDS011;11317;51.072;17.036;2024-02-21T06:18:18;4.47;;;2.75;;
22298;SDS011;11317;51.072;17.036;2024-02-21T06:20:44;9.15;;;2.75;;
22298;SDS011;11317;51.072;17.036;2024-02-21T06:23:11;9.55;;;2.95;;
22298;SDS011;11317;51.072;17.036;2024-02-21T06:25:38;9.77;;;3.17;;
22298;SDS011;11317;51.072;17.036;2024-02-21T06:28:04;10.82;;;3.53;;
22298;SDS011;11317;51.072;17.036;2024-02-21T06:30:30;5.25;;;3.50;;
22298;SDS011;11317;51.072;17.036;2024-02-21T06:32:56;5.50;;;3.05;;
22298;SDS011;11317;51.072;17.036;2024-02-21T06:35:24;5.55;;;3.35;;
22298;SDS011;11317;51.072;17.036;2024-02-21T06:37:50;6.75;;;3.30;;
22298;SDS011;11317;51.072;17.036;2024-02-21T06:40:17;6.70;;;2.92;;
22298;SDS011;11317;51.072;17.036;2024-02-21T06:42:43;8.48;;;3.13;;
22298;SDS011;11317;51.072;17.036;2024-02-21T06:45:09;5.03;;;2.75;;
22298;SDS011;11317;51.072;17.036;2024-02-21T06:47:35;5.03;;;2.75;;
22298;SDS011;11317;51.072;17.036;2024-02-21T06:50:01;8.50;;;3.25;;
22298;SDS011;11317;51.072;17.036;2024-02-21T06:52:27;8.20;;;3.13;;
22298;SDS011;11317;51.072;17.036;2024-02-21T06:54:53;9.27;;;3.33;;
22298;SDS011;11317;51.072;17.036;2024-02-21T06:57:19;6.15;;;3.28;;
22298;SDS011;11317;51.072;17.036;2024-02-21T06:59:45;6.32;;;3.47;;
22298;SDS011;11317;51.072;17.036;2024-02-21T07:02:11;8.13;;;2.70;;
22298;SDS011;11317;51.072;17.036;2024-02-21T07:04:37;11.55;;;3.20;;
22298;SDS011;11317;51.072;17.036;2024-02-21T07:07:03;10.20;;;3.25;;
22298;SDS011;11317;51.072;17.036;2024-02-21T07:09:29;9.70;;;3.22;;
22298;SDS011;11317;51.072;17.036;2024-02-21T07:12:00;9.85;;;3.70;;
22298;SDS011;11317;51.072;17.036;2024-02-21T07:14:27;8.75;;;3.58;;
22298;SDS011;11317;51.072;17.036;2024-02-21T07:16:53;10.80;;;3.60;;
22298;SDS011;11317;51.072;17.036;2024-02-21T07:19:20;12.75;;;4.60;;
22298;SDS011;11317;51.072;17.036;2024-02-21T07:21:46;15.52;;;4.22;;
22298;SDS011;11317;51.072;17.036;2024-02-21T07:24:13;22.42;;;5.55;;
22298;SDS011;11317;51.072;17.036;2024-02-21T07:26:43;27.35;;;6.40;;
22298;SDS011;11317;51.072;17.036;2024-02-21T07:29:09;15.73;;;3.92;;
22298;SDS011;11317;51.072;17.036;2024-02-21T07:31:42;10.75;;;3.92;;
22298;SDS011;11317;51.072;17.036;2024-02-21T07:34:08;8.23;;;3.63;;
22298;SDS011;11317;51.072;17.036;2024-02-21T07:36:34;12.18;;;3.58;;
22298;SDS011;11317;51.072;17.036;2024-02-21T07:39:02;14.88;;;3.83;;
22298;SDS011;11317;51.072;17.036;2024-02-21T07:41:29;12.93;;;3.67;;
22298;SDS011;11317;51.072;17.036;2024-02-21T07:43:55;8.55;;;3.08;;
22298;SDS011;11317;51.072;17.036;2024-02-21T07:46:22;6.65;;;3.20;;
22298;SDS011;11317;51.072;17.036;2024-02-21T07:48:48;5.93;;;3.05;;
22298;SDS011;11317;51.072;17.036;2024-02-21T07:51:14;6.38;;;3.30;;
22298;SDS011;11317;51.072;17.036;2024-02-21T07:53:43;7.03;;;3.42;;
22298;SDS011;11317;51.072;17.036;2024-02-21T07:56:10;18.33;;;4.57;;
22298;SDS011;11317;51.072;17.036;2024-02-21T07:58:36;9.50;;;4.30;;
22298;SDS011;11317;51.072;17.036;2024-02-21T08:01:03;5.55;;;3.40;;
22298;SDS011;11317;51.072;17.036;2024-02-21T08:03:29;12.10;;;3.70;;
22298;SDS011;11317;51.072;17.036;2024-02-21T08:05:55;7.35;;;3.88;;
22298;SDS011;11317;51.072;17.036;2024-02-21T08:08:21;15.73;;;4.55;;
22298;SDS011;11317;51.072;17.036;2024-02-21T08:10:48;25.02;;;5.63;;
22298;SDS011;11317;51.072;17.036;2024-02-21T08:13:14;21.70;;;5.63;;
22298;SDS011;11317;51.072;17.036;2024-02-21T08:15:40;11.07;;;3.97;;
22298;SDS011;11317;51.072;17.036;2024-02-21T08:18:07;13.95;;;5.10;;
22298;SDS011;11317;51.072;17.036;2024-02-21T08:20:33;12.30;;;3.65;;
22298;SDS011;11317;51.072;17.036;2024-02-21T08:22:59;11.40;;;4.53;;
22298;SDS011;11317;51.072;17.036;2024-02-21T08:25:25;8.73;;;3.92;;
22298;SDS011;11317;51.072;17.036;2024-02-21T08:27:51;31.35;;;10.52;;
22298;SDS011;11317;51.072;17.036;2024-02-21T08:30:18;17.38;;;8.18;;
22298;SDS011;11317;51.072;17.036;2024-02-21T08:32:45;23.08;;;9.70;;
22298;SDS011;11317;51.072;17.036;2024-02-21T08:35:11;24.70;;;12.57;;
22298;SDS011;11317;51.072;17.036;2024-02-21T08:37:37;121.22;;;48.85;;
22298;SDS011;11317;51.072;17.036;2024-02-21T08:40:03;92.60;;;33.63;;
22298;SDS011;11317;51.072;17.036;2024-02-21T08:42:33;35.17;;;11.05;;
22298;SDS011;11317;51.072;17.036;2024-02-21T08:44:59;19.10;;;6.60;;
22298;SDS011;11317;51.072;17.036;2024-02-21T08:47:25;15.93;;;6.22;;
22298;SDS011;11317;51.072;17.036;2024-02-21T08:49:52;24.33;;;5.30;;
22298;SDS011;11317;51.072;17.036;2024-02-21T08:52:18;19.65;;;6.50;;
22298;SDS011;11317;51.072;17.036;2024-02-21T08:54:44;39.92;;;8.25;;
22298;SDS011;11317;51.072;17.036;2024-02-21T08:57:10;16.50;;;4.22;;
22298;SDS011;11317;51.072;17.036;2024-02-21T08:59:35;11.32;;;4.80;;
22298;SDS011;11317;51.072;17.036;2024-02-21T09:02:02;12.73;;;5.25;;
22298;SDS011;11317;51.072;17.036;2024-02-21T09:04:28;10.85;;;5.32;;
22298;SDS011;11317;51.072;17.036;2024-02-21T09:06:54;13.48;;;4.70;;
22298;SDS011;11317;51.072;17.036;2024-02-21T09:09:20;9.93;;;5.15;;
22298;SDS011;11317;51.072;17.036;2024-02-21T09:11:46;9.80;;;4.22;;
22298;SDS011;11317;51.072;17.036;2024-02-21T09:14:12;11.88;;;4.28;;
22298;SDS011;11317;51.072;17.036;2024-02-21T09:16:38;12.63;;;4.75;;
22298;SDS011;11317;51.072;17.036;2024-02-21T09:19:04;24.40;;;5.28;;
22298;SDS011;11317;51.072;17.036;2024-02-21T09:21:30;12.30;;;5.10;;
22298;SDS011;11317;51.072;17.036;2024-02-21T09:23:56;13.48;;;4.07;;
22298;SDS011;11317;51.072;17.036;2024-02-21T09:26:23;11.50;;;4.50;;
22298;SDS011;11317;51.072;17.036;2024-02-21T09:28:49;11.20;;;4.43;;
22298;SDS011;11317;51.072;17.036;2024-02-21T09:31:16;10.35;;;3.97;;
22298;SDS011;11317;51.072;17.036;2024-02-21T09:33:42;12.27;;;4.25;;
22298;SDS011;11317;51.072;17.036;2024-02-21T09:36:08;11.38;;;4.18;;
22298;SDS011;11317;51.072;17.036;2024-02-21T09:38:34;9.18;;;3.85;;
22298;SDS011;11317;51.072;17.036;2024-02-21T09:41:04;8.52;;;3.88;;
22298;SDS011;11317;51.072;17.036;2024-02-21T09:43:43;9.13;;;4.30;;
22298;SDS011;11317;51.072;17.036;2024-02-21T09:46:17;16.77;;;4.65;;
22298;SDS011;11317;51.072;17.036;2024-02-21T09:48:52;18.77;;;8.32;;
22298;SDS011;11317;51.072;17.036;2024-02-21T09:51:28;15.82;;;3.85;;
22298;SDS011;11317;51.072;17.036;2024-02-21T09:53:57;12.75;;;4.78;;
22298;SDS011;11317;51.072;17.036;2024-02-21T09:56:24;13.50;;;5.32;;
22298;SDS011;11317;51.072;17.036;2024-02-21T09:58:50;9.88;;;5.05;;
22298;SDS011;11317;51.072;17.036;2024-02-21T10:01:16;10.40;;;4.32;;
22298;SDS011;11317;51.072;17.036;2024-02-21T10:03:42;9.48;;;3.45;;
22298;SDS011;11317;51.072;17.036;2024-02-21T10:06:11;7.57;;;3.65;;
22298;SDS011;11317;51.072;17.036;2024-02-21T10:08:37;10.18;;;4.22;;
22298;SDS011;11317;51.072;17.036;2024-02-21T10:11:03;10.98;;;4.00;;
22298;SDS011;11317;51.072;17.036;2024-02-21T10:13:29;16.48;;;4.60;;
22298;SDS011;11317;51.072;17.036;2024-02-21T10:16:05;11.77;;;4.68;;
22298;SDS011;11317;51.072;17.036;2024-02-21T10:18:32;30.70;;;7.80;;
22298;SDS011;11317;51.072;17.036;2024-02-21T10:21:05;16.15;;;4.95;;
22298;SDS011;11317;51.072;17.036;2024-02-21T10:23:41;16.95;;;5.03;;
22298;SDS011;11317;51.072;17.036;2024-02-21T10:26:10;10.70;;;4.47;;
22298;SDS011;11317;51.072;17.036;2024-02-21T10:28:37;15.63;;;3.90;;
22298;SDS011;11317;51.072;17.036;2024-02-21T10:31:20;8.00;;;4.18;;
22298;SDS011;11317;51.072;17.036;2024-02-21T10:34:08;13.85;;;4.10;;
22298;SDS011;11317;51.072;17.036;2024-02-21T10:36:34;8.25;;;3.97;;
22298;SDS011;11317;51.072;17.036;2024-02-21T10:39:00;9.73;;;3.28;;
22298;SDS011;11317;51.072;17.036;2024-02-21T10:41:26;9.57;;;4.50;;
22298;SDS011;11317;51.072;17.036;2024-02-21T10:43:54;14.70;;;4.57;;
22298;SDS011;11317;51.072;17.036;2024-02-21T10:46:23;10.45;;;4.20;;
22298;SDS011;11317;51.072;17.036;2024-02-21T10:49:04;18.23;;;5.05;;
22298;SDS011;11317;51.072;17.036;2024-02-21T10:51:54;16.60;;;4.70;;
22298;SDS011;11317;51.072;17.036;2024-02-21T10:54:56;10.68;;;4.75;;
22298;SDS011;11317;51.072;17.036;2024-02-21T10:57:26;14.40;;;5.28;;
22298;SDS011;11317;51.072;17.036;2024-02-21T10:59:53;6.85;;;3.60;;
22298;SDS011;11317;51.072;17.036;2024-02-21T11:02:20;6.47;;;4.03;;
22298;SDS011;11317;51.072;17.036;2024-02-21T11:04:47;10.43;;;4.03;;
22298;SDS011;11317;51.072;17.036;2024-02-21T11:07:14;10.60;;;4.18;;
22298;SDS011;11317;51.072;17.036;2024-02-21T11:09:40;15.07;;;8.75;;
22298;SDS011;11317;51.072;17.036;2024-02-21T11:12:19;21.02;;;11.57;;
22298;SDS011;11317;51.072;17.036;2024-02-21T11:14:46;18.40;;;7.53;;
22298;SDS011;11317;51.072;17.036;2024-02-21T11:17:16;12.25;;;5.47;;
22298;SDS011;11317;51.072;17.036;2024-02-21T11:19:42;15.57;;;4.75;;
22298;SDS011;11317;51.072;17.036;2024-02-21T11:22:15;13.23;;;5.35;;
22298;SDS011;11317;51.072;17.036;2024-02-21T11:24:42;10.98;;;5.53;;
22298;SDS011;11317;51.072;17.036;2024-02-21T11:27:15;10.15;;;4.65;;
22298;SDS011;11317;51.072;17.036;2024-02-21T11:29:44;11.48;;;5.53;;
22298;SDS011;11317;51.072;17.036;2024-02-21T11:32:11;10.25;;;4.43;;
22298;SDS011;11317;51.072;17.036;2024-02-21T11:34:41;19.95;;;10.88;;
22298;SDS011;11317;51.072;17.036;2024-02-21T11:37:13;17.23;;;8.18;;
22298;SDS011;11317;51.072;17.036;2024-02-21T11:39:42;8.82;;;5.00;;
22298;SDS011;11317;51.072;17.036;2024-02-21T11:42:08;8.60;;;4.60;;
22298;SDS011;11317;51.072;17.036;2024-02-21T11:44:35;9.55;;;4.35;;
22298;SDS011;11317;51.072;17.036;2024-02-21T11:47:05;9.60;;;4.75;;
22298;SDS011;11317;51.072;17.036;2024-02-21T11:49:35;6.07;;;4.05;;
22298;SDS011;11317;51.072;17.036;2024-02-21T11:52:10;10.65;;;5.05;;
22298;SDS011;11317;51.072;17.036;2024-02-21T11:54:36;11.25;;;4.57;;
22298;SDS011;11317;51.072;17.036;2024-02-21T11:57:02;6.63;;;3.63;;
22298;SDS011;11317;51.072;17.036;2024-02-21T11:59:32;11.18;;;4.43;;
22298;SDS011;11317;51.072;17.036;2024-02-21T12:01:59;13.15;;;4.63;;
22298;SDS011;11317;51.072;17.036;2024-02-21T12:04:28;10.25;;;4.43;;
22298;SDS011;11317;51.072;17.036;2024-02-21T12:06:56;9.15;;;4.13;;
22298;SDS011;11317;51.072;17.036;2024-02-21T12:09:23;7.20;;;4.28;;
22298;SDS011;11317;51.072;17.036;2024-02-21T12:11:59;7.00;;;3.60;;
22298;SDS011;11317;51.072;17.036;2024-02-21T12:14:30;10.35;;;4.15;;
22298;SDS011;11317;51.072;17.036;2024-02-21T12:16:57;6.28;;;3.85;;
22298;SDS011;11317;51.072;17.036;2024-02-21T12:19:24;12.35;;;4.22;;
22298;SDS011;11317;51.072;17.036;2024-02-21T12:21:50;10.48;;;4.22;;
22298;SDS011;11317;51.072;17.036;2024-02-21T12:24:20;9.35;;;3.83;;
22298;SDS011;11317;51.072;17.036;2024-02-21T12:26:53;6.03;;;3.10;;
22298;SDS011;11317;51.072;17.036;2024-02-21T12:29:20;7.18;;;3.15;;
22298;SDS011;11317;51.072;17.036;2024-02-21T12:31:47;5.50;;;3.20;;
22298;SDS011;11317;51.072;17.036;2024-02-21T12:34:14;6.45;;;3.05;;
22298;SDS011;11317;51.072;17.036;2024-02-21T12:36:40;9.82;;;3.15;;
22298;SDS011;11317;51.072;17.036;2024-02-21T12:39:12;8.40;;;3.17;;
22298;SDS011;11317;51.072;17.036;2024-02-21T12:41:38;5.70;;;2.65;;
22298;SDS011;11317;51.072;17.036;2024-02-21T12:44:06;8.85;;;3.22;;
22298;SDS011;11317;51.072;17.036;2024-02-21T12:46:35;11.63;;;3.30;;
22298;SDS011;11317;51.072;17.036;2024-02-21T12:49:01;8.32;;;3.00;;
22298;SDS011;11317;51.072;17.036;2024-02-21T12:51:28;9.70;;;4.35;;
22298;SDS011;11317;51.072;17.036;2024-02-21T12:53:54;23.42;;;8.80;;
22298;SDS011;11317;51.072;17.036;2024-02-21T12:56:20;35.15;;;11.48;;
22298;SDS011;11317;51.072;17.036;2024-02-21T12:58:47;24.15;;;8.30;;
22298;SDS011;11317;51.072;17.036;2024-02-21T13:01:13;20.45;;;6.25;;
22298;SDS011;11317;51.072;17.036;2024-02-21T13:03:39;12.63;;;5.15;;
22298;SDS011;11317;51.072;17.036;2024-02-21T13:06:05;12.73;;;5.10;;
22298;SDS011;11317;51.072;17.036;2024-02-21T13:08:35;12.38;;;5.68;;
22298;SDS011;11317;51.072;17.036;2024-02-21T13:11:02;9.65;;;5.53;;
22298;SDS011;11317;51.072;17.036;2024-02-21T13:13:28;4.72;;;2.90;;
22298;SDS011;11317;51.072;17.036;2024-02-21T13:15:54;9.50;;;3.38;;
22298;SDS011;11317;51.072;17.036;2024-02-21T13:18:20;4.32;;;2.58;;
22298;SDS011;11317;51.072;17.036;2024-02-21T13:20:47;7.00;;;3.17;;
22298;SDS011;11317;51.072;17.036;2024-02-21T13:23:13;7.32;;;3.08;;
22298;SDS011;11317;51.072;17.036;2024-02-21T13:25:38;8.27;;;3.55;;
22298;SDS011;11317;51.072;17.036;2024-02-21T13:28:04;7.25;;;3.90;;
22298;SDS011;11317;51.072;17.036;2024-02-21T13:30:30;6.88;;;4.45;;
22298;SDS011;11317;51.072;17.036;2024-02-21T13:32:56;5.60;;;2.92;;
22298;SDS011;11317;51.072;17.036;2024-02-21T13:35:23;6.10;;;3.25;;
22298;SDS011;11317;51.072;17.036;2024-02-21T13:37:48;7.78;;;3.67;;
22298;SDS011;11317;51.072;17.036;2024-02-21T13:40:15;7.78;;;3.60;;
22298;SDS011;11317;51.072;17.036;2024-02-21T13:42:41;8.20;;;3.30;;
22298;SDS011;11317;51.072;17.036;2024-02-21T13:45:08;5.50;;;3.53;;
22298;SDS011;11317;51.072;17.036;2024-02-21T13:47:35;8.98;;;3.30;;
22298;SDS011;11317;51.072;17.036;2024-02-21T13:50:02;8.23;;;3.40;;
22298;SDS011;11317;51.072;17.036;2024-02-21T13:52:30;10.27;;;3.97;;
22298;SDS011;11317;51.072;17.036;2024-02-21T13:54:56;7.35;;;3.40;;
22298;SDS011;11317;51.072;17.036;2024-02-21T13:57:22;7.93;;;3.65;;
22298;SDS011;11317;51.072;17.036;2024-02-21T13:59:48;7.80;;;3.13;;
22298;SDS011;11317;51.072;17.036;2024-02-21T14:02:14;6.95;;;3.67;;
22298;SDS011;11317;51.072;17.036;2024-02-21T14:04:40;14.57;;;3.67;;
22298;SDS011;11317;51.072;17.036;2024-02-21T14:07:06;7.68;;;3.22;;
22298;SDS011;11317;51.072;17.036;2024-02-21T14:09:32;7.97;;;4.07;;
22298;SDS011;11317;51.072;17.036;2024-02-21T14:11:59;6.22;;;3.13;;
22298;SDS011;11317;51.072;17.036;2024-02-21T14:14:25;6.70;;;3.72;;
22298;SDS011;11317;51.072;17.036;2024-02-21T14:16:53;8.82;;;4.20;;
22298;SDS011;11317;51.072;17.036;2024-02-21T14:19:21;8.50;;;3.30;;
22298;SDS011;11317;51.072;17.036;2024-02-21T14:21:47;7.13;;;3.22;;
22298;SDS011;11317;51.072;17.036;2024-02-21T14:24:13;7.80;;;3.85;;
22298;SDS011;11317;51.072;17.036;2024-02-21T14:26:39;7.13;;;3.08;;
22298;SDS011;11317;51.072;17.036;2024-02-21T14:29:06;6.90;;;3.50;;
22298;SDS011;11317;51.072;17.036;2024-02-21T14:31:32;7.80;;;3.33;;